sensor_id;sensor_type;location;lat;lon;timestamp;P1;durP1;ratioP1;P2;durP2;ratioP2
33716;SDS011;20046;50.746;7.072;2022-08-30T00:01:06;12.13;;;3.72;;
33716;SDS011;20046;50.746;7.072;2022-08-30T00:03:37;12.48;;;3.10;;
33716;SDS011;20046;50.746;7.072;2022-08-30T00:06:06;8.65;;;3.30;;
33716;SDS011;20046;50.746;7.072;2022-08-30T00:08:33;13.02;;;3.90;;
33716;SDS011;20046;50.746;7.072;2022-08-30T00:11:01;7.90;;;3.30;;
33716;SDS011;20046;50.746;7.072;2022-08-30T00:13:29;10.85;;;3.75;;
33716;SDS011;20046;50.746;7.072;2022-08-30T00:15:55;7.68;;;3.53;;
33716;SDS011;20046;50.746;7.072;2022-08-30T00:18:21;10.07;;;3.67;;
33716;SDS011;20046;50.746;7.072;2022-08-30T00:20:48;7.60;;;3.03;;
33716;SDS011;20046;50.746;7.072;2022-08-30T00:23:14;7.43;;;2.97;;
33716;SDS011;20046;50.746;7.072;2022-08-30T00:25:41;12.13;;;3.40;;
33716;SDS011;20046;50.746;7.072;2022-08-30T00:28:07;8.45;;;3.95;;
33716;SDS011;20046;50.746;7.072;2022-08-30T00:30:34;10.88;;;3.78;;
33716;SDS011;20046;50.746;7.072;2022-08-30T00:33:00;7.97;;;3.10;;
33716;SDS011;20046;50.746;7.072;2022-08-30T00:35:25;12.35;;;3.70;;
33716;SDS011;20046;50.746;7.072;2022-08-30T00:37:51;9.30;;;4.20;;
33716;SDS011;20046;50.746;7.072;2022-08-30T00:40:17;11.25;;;4.22;;
33716;SDS011;20046;50.746;7.072;2022-08-30T00:42:44;7.63;;;3.28;;
33716;SDS011;20046;50.746;7.072;2022-08-30T00:45:16;9.90;;;3.30;;
33716;SDS011;20046;50.746;7.072;2022-08-30T00:47:43;9.77;;;3.20;;
33716;SDS011;20046;50.746;7.072;2022-08-30T00:50:09;10.63;;;3.10;;
33716;SDS011;20046;50.746;7.072;2022-08-30T00:52:38;8.18;;;3.55;;
33716;SDS011;20046;50.746;7.072;2022-08-30T00:55:06;7.97;;;3.00;;
33716;SDS011;20046;50.746;7.072;2022-08-30T00:57:33;9.50;;;3.35;;
33716;SDS011;20046;50.746;7.072;2022-08-30T01:00:00;7.93;;;3.50;;
33716;SDS011;20046;50.746;7.072;2022-08-30T01:02:26;8.45;;;3.17;;
33716;SDS011;20046;50.746;7.072;2022-08-30T01:04:54;9.25;;;3.42;;
33716;SDS011;20046;50.746;7.072;2022-08-30T01:07:21;9.55;;;4.30;;
33716;SDS011;20046;50.746;7.072;2022-08-30T01:09:47;8.32;;;4.00;;
33716;SDS011;20046;50.746;7.072;2022-08-30T01:12:12;9.82;;;4.03;;
33716;SDS011;20046;50.746;7.072;2022-08-30T01:14:38;8.25;;;3.92;;
33716;SDS011;20046;50.746;7.072;2022-08-30T01:17:04;9.82;;;3.72;;
33716;SDS011;20046;50.746;7.072;2022-08-30T01:19:41;9.73;;;3.60;;
33716;SDS011;20046;50.746;7.072;2022-08-30T01:22:20;8.27;;;4.35;;
33716;SDS011;20046;50.746;7.072;2022-08-30T01:24:58;8.75;;;4.25;;
33716;SDS011;20046;50.746;7.072;2022-08-30T01:27:25;11.73;;;3.47;;
33716;SDS011;20046;50.746;7.072;2022-08-30T01:29:52;8.13;;;3.90;;
33716;SDS011;20046;50.746;7.072;2022-08-30T01:32:20;11.57;;;3.60;;
33716;SDS011;20046;50.746;7.072;2022-08-30T01:34:47;12.05;;;4.20;;
33716;SDS011;20046;50.746;7.072;2022-08-30T01:37:24;7.68;;;3.55;;
33716;SDS011;20046;50.746;7.072;2022-08-30T01:39:52;11.02;;;3.60;;
33716;SDS011;20046;50.746;7.072;2022-08-30T01:42:18;7.28;;;3.25;;
33716;SDS011;20046;50.746;7.072;2022-08-30T01:44:44;11.73;;;3.80;;
33716;SDS011;20046;50.746;7.072;2022-08-30T01:47:10;8.85;;;3.70;;
33716;SDS011;20046;50.746;7.072;2022-08-30T01:49:37;7.35;;;3.90;;
33716;SDS011;20046;50.746;7.072;2022-08-30T01:52:05;8.90;;;4.15;;
33716;SDS011;20046;50.746;7.072;2022-08-30T01:54:32;7.88;;;3.88;;
33716;SDS011;20046;50.746;7.072;2022-08-30T01:56:59;14.00;;;4.30;;
33716;SDS011;20046;50.746;7.072;2022-08-30T01:59:25;8.20;;;3.92;;
33716;SDS011;20046;50.746;7.072;2022-08-30T02:01:50;10.05;;;3.80;;
33716;SDS011;20046;50.746;7.072;2022-08-30T02:04:16;8.88;;;3.97;;
33716;SDS011;20046;50.746;7.072;2022-08-30T02:06:42;8.57;;;4.45;;
33716;SDS011;20046;50.746;7.072;2022-08-30T02:09:09;8.00;;;3.78;;
33716;SDS011;20046;50.746;7.072;2022-08-30T02:11:35;11.25;;;3.65;;
33716;SDS011;20046;50.746;7.072;2022-08-30T02:14:01;10.25;;;4.00;;
33716;SDS011;20046;50.746;7.072;2022-08-30T02:16:27;8.50;;;4.07;;
33716;SDS011;20046;50.746;7.072;2022-08-30T02:18:52;8.23;;;3.85;;
33716;SDS011;20046;50.746;7.072;2022-08-30T02:21:21;8.93;;;3.88;;
33716;SDS011;20046;50.746;7.072;2022-08-30T02:23:47;9.43;;;3.83;;
33716;SDS011;20046;50.746;7.072;2022-08-30T02:26:14;7.85;;;4.20;;
33716;SDS011;20046;50.746;7.072;2022-08-30T02:28:40;10.70;;;4.20;;
33716;SDS011;20046;50.746;7.072;2022-08-30T02:31:06;11.13;;;3.80;;
33716;SDS011;20046;50.746;7.072;2022-08-30T02:33:31;7.53;;;4.13;;
33716;SDS011;20046;50.746;7.072;2022-08-30T02:35:57;10.30;;;3.88;;
33716;SDS011;20046;50.746;7.072;2022-08-30T02:38:23;9.32;;;3.95;;
33716;SDS011;20046;50.746;7.072;2022-08-30T02:40:49;11.88;;;3.75;;
33716;SDS011;20046;50.746;7.072;2022-08-30T02:43:15;10.90;;;4.47;;
33716;SDS011;20046;50.746;7.072;2022-08-30T02:45:42;10.23;;;4.53;;
33716;SDS011;20046;50.746;7.072;2022-08-30T02:48:08;11.35;;;4.22;;
33716;SDS011;20046;50.746;7.072;2022-08-30T02:50:34;6.72;;;4.03;;
33716;SDS011;20046;50.746;7.072;2022-08-30T02:53:03;11.65;;;3.92;;
33716;SDS011;20046;50.746;7.072;2022-08-30T02:55:29;8.40;;;3.97;;
33716;SDS011;20046;50.746;7.072;2022-08-30T02:57:54;8.18;;;4.07;;
33716;SDS011;20046;50.746;7.072;2022-08-30T03:00:20;10.85;;;4.22;;
33716;SDS011;20046;50.746;7.072;2022-08-30T03:02:46;7.97;;;4.68;;
33716;SDS011;20046;50.746;7.072;2022-08-30T03:05:12;9.13;;;4.07;;
33716;SDS011;20046;50.746;7.072;2022-08-30T03:07:39;8.60;;;4.00;;
33716;SDS011;20046;50.746;7.072;2022-08-30T03:10:05;7.78;;;4.18;;
33716;SDS011;20046;50.746;7.072;2022-08-30T03:12:32;10.25;;;4.13;;
33716;SDS011;20046;50.746;7.072;2022-08-30T03:14:58;8.88;;;4.25;;
33716;SDS011;20046;50.746;7.072;2022-08-30T03:17:24;11.57;;;4.40;;
33716;SDS011;20046;50.746;7.072;2022-08-30T03:19:50;10.73;;;6.65;;
33716;SDS011;20046;50.746;7.072;2022-08-30T03:22:15;10.57;;;4.22;;
33716;SDS011;20046;50.746;7.072;2022-08-30T03:24:42;7.85;;;4.18;;
33716;SDS011;20046;50.746;7.072;2022-08-30T03:27:09;11.05;;;3.97;;
33716;SDS011;20046;50.746;7.072;2022-08-30T03:29:36;6.95;;;3.70;;
33716;SDS011;20046;50.746;7.072;2022-08-30T03:32:03;13.27;;;4.10;;
33716;SDS011;20046;50.746;7.072;2022-08-30T03:34:30;11.48;;;4.80;;
33716;SDS011;20046;50.746;7.072;2022-08-30T03:36:56;8.52;;;4.40;;
33716;SDS011;20046;50.746;7.072;2022-08-30T03:39:22;9.45;;;4.13;;
33716;SDS011;20046;50.746;7.072;2022-08-30T03:41:49;10.27;;;3.63;;
33716;SDS011;20046;50.746;7.072;2022-08-30T03:44:15;9.48;;;4.43;;
33716;SDS011;20046;50.746;7.072;2022-08-30T03:46:41;14.27;;;4.63;;
33716;SDS011;20046;50.746;7.072;2022-08-30T03:49:06;6.90;;;3.70;;
33716;SDS011;20046;50.746;7.072;2022-08-30T03:51:32;11.15;;;4.53;;
33716;SDS011;20046;50.746;7.072;2022-08-30T03:53:58;12.43;;;4.03;;
33716;SDS011;20046;50.746;7.072;2022-08-30T03:56:24;8.98;;;4.40;;
33716;SDS011;20046;50.746;7.072;2022-08-30T03:58:50;13.70;;;4.85;;
33716;SDS011;20046;50.746;7.072;2022-08-30T04:01:16;12.38;;;3.95;;
33716;SDS011;20046;50.746;7.072;2022-08-30T04:03:41;13.80;;;4.00;;
33716;SDS011;20046;50.746;7.072;2022-08-30T04:06:07;12.88;;;4.38;;
33716;SDS011;20046;50.746;7.072;2022-08-30T04:08:32;9.40;;;3.90;;
33716;SDS011;20046;50.746;7.072;2022-08-30T04:10:58;9.10;;;4.10;;
33716;SDS011;20046;50.746;7.072;2022-08-30T04:13:26;13.20;;;4.88;;
33716;SDS011;20046;50.746;7.072;2022-08-30T04:15:52;11.50;;;4.20;;
33716;SDS011;20046;50.746;7.072;2022-08-30T04:18:18;13.23;;;4.78;;
33716;SDS011;20046;50.746;7.072;2022-08-30T04:20:44;10.82;;;4.25;;
33716;SDS011;20046;50.746;7.072;2022-08-30T04:23:10;10.00;;;4.10;;
33716;SDS011;20046;50.746;7.072;2022-08-30T04:25:36;8.68;;;4.63;;
33716;SDS011;20046;50.746;7.072;2022-08-30T04:28:03;11.65;;;5.03;;
33716;SDS011;20046;50.746;7.072;2022-08-30T04:30:30;14.90;;;9.23;;
33716;SDS011;20046;50.746;7.072;2022-08-30T04:32:56;20.67;;;13.02;;
33716;SDS011;20046;50.746;7.072;2022-08-30T04:35:22;36.00;;;20.10;;
33716;SDS011;20046;50.746;7.072;2022-08-30T04:37:48;50.95;;;30.67;;
33716;SDS011;20046;50.746;7.072;2022-08-30T04:40:14;163.63;;;83.53;;
33716;SDS011;20046;50.746;7.072;2022-08-30T04:42:40;135.07;;;69.70;;
33716;SDS011;20046;50.746;7.072;2022-08-30T04:45:09;99.05;;;52.13;;
33716;SDS011;20046;50.746;7.072;2022-08-30T04:47:38;124.47;;;62.13;;
33716;SDS011;20046;50.746;7.072;2022-08-30T04:50:05;109.18;;;55.67;;
33716;SDS011;20046;50.746;7.072;2022-08-30T04:52:32;91.85;;;48.60;;
33716;SDS011;20046;50.746;7.072;2022-08-30T04:54:58;86.68;;;45.53;;
33716;SDS011;20046;50.746;7.072;2022-08-30T04:57:24;87.53;;;43.17;;
33716;SDS011;20046;50.746;7.072;2022-08-30T04:59:50;72.80;;;37.78;;
33716;SDS011;20046;50.746;7.072;2022-08-30T05:02:16;67.78;;;33.08;;
33716;SDS011;20046;50.746;7.072;2022-08-30T05:04:42;60.78;;;30.25;;
33716;SDS011;20046;50.746;7.072;2022-08-30T05:07:27;37.47;;;19.00;;
33716;SDS011;20046;50.746;7.072;2022-08-30T05:09:54;24.75;;;13.23;;
33716;SDS011;20046;50.746;7.072;2022-08-30T05:12:20;28.02;;;12.95;;
33716;SDS011;20046;50.746;7.072;2022-08-30T05:14:46;22.83;;;11.55;;
33716;SDS011;20046;50.746;7.072;2022-08-30T05:17:11;25.58;;;11.82;;
33716;SDS011;20046;50.746;7.072;2022-08-30T05:19:37;28.27;;;11.75;;
33716;SDS011;20046;50.746;7.072;2022-08-30T05:22:03;24.25;;;11.23;;
33716;SDS011;20046;50.746;7.072;2022-08-30T05:24:28;20.83;;;9.65;;
33716;SDS011;20046;50.746;7.072;2022-08-30T05:26:55;23.27;;;11.20;;
33716;SDS011;20046;50.746;7.072;2022-08-30T05:29:21;26.35;;;10.43;;
33716;SDS011;20046;50.746;7.072;2022-08-30T05:31:47;19.50;;;7.50;;
33716;SDS011;20046;50.746;7.072;2022-08-30T05:34:13;15.02;;;6.97;;
33716;SDS011;20046;50.746;7.072;2022-08-30T05:36:39;18.88;;;5.80;;
33716;SDS011;20046;50.746;7.072;2022-08-30T05:39:05;12.85;;;5.90;;
33716;SDS011;20046;50.746;7.072;2022-08-30T05:41:32;25.20;;;5.75;;
33716;SDS011;20046;50.746;7.072;2022-08-30T05:43:58;18.60;;;5.68;;
33716;SDS011;20046;50.746;7.072;2022-08-30T05:46:26;24.88;;;6.63;;
33716;SDS011;20046;50.746;7.072;2022-08-30T05:48:56;16.65;;;5.80;;
33716;SDS011;20046;50.746;7.072;2022-08-30T05:51:24;11.85;;;5.20;;
33716;SDS011;20046;50.746;7.072;2022-08-30T05:53:53;11.63;;;5.40;;
33716;SDS011;20046;50.746;7.072;2022-08-30T05:56:23;19.02;;;6.72;;
33716;SDS011;20046;50.746;7.072;2022-08-30T05:58:52;13.38;;;5.15;;
33716;SDS011;20046;50.746;7.072;2022-08-30T06:03:43;8.13;;;4.85;;
33716;SDS011;20046;50.746;7.072;2022-08-30T06:06:09;12.93;;;5.57;;
33716;SDS011;20046;50.746;7.072;2022-08-30T06:08:35;17.50;;;5.50;;
33716;SDS011;20046;50.746;7.072;2022-08-30T06:11:00;18.05;;;5.45;;
33716;SDS011;20046;50.746;7.072;2022-08-30T06:13:26;10.73;;;5.25;;
33716;SDS011;20046;50.746;7.072;2022-08-30T06:15:52;11.07;;;5.50;;
33716;SDS011;20046;50.746;7.072;2022-08-30T06:18:17;16.73;;;5.85;;
33716;SDS011;20046;50.746;7.072;2022-08-30T06:20:44;16.05;;;6.00;;
33716;SDS011;20046;50.746;7.072;2022-08-30T06:23:11;18.38;;;5.40;;
33716;SDS011;20046;50.746;7.072;2022-08-30T06:25:38;13.27;;;5.55;;
33716;SDS011;20046;50.746;7.072;2022-08-30T06:28:04;15.23;;;6.20;;
33716;SDS011;20046;50.746;7.072;2022-08-30T06:30:30;11.88;;;5.50;;
33716;SDS011;20046;50.746;7.072;2022-08-30T06:32:57;23.35;;;5.90;;
33716;SDS011;20046;50.746;7.072;2022-08-30T06:35:22;12.60;;;5.53;;
33716;SDS011;20046;50.746;7.072;2022-08-30T06:37:49;16.60;;;6.20;;
33716;SDS011;20046;50.746;7.072;2022-08-30T06:40:14;18.77;;;5.93;;
33716;SDS011;20046;50.746;7.072;2022-08-30T06:42:42;10.45;;;5.25;;
33716;SDS011;20046;50.746;7.072;2022-08-30T06:45:08;16.83;;;5.50;;
33716;SDS011;20046;50.746;7.072;2022-08-30T06:47:34;18.05;;;6.10;;
33716;SDS011;20046;50.746;7.072;2022-08-30T06:49:59;19.42;;;5.68;;
33716;SDS011;20046;50.746;7.072;2022-08-30T06:52:25;19.08;;;6.55;;
33716;SDS011;20046;50.746;7.072;2022-08-30T06:54:52;14.95;;;5.75;;
33716;SDS011;20046;50.746;7.072;2022-08-30T06:57:19;16.65;;;5.95;;
33716;SDS011;20046;50.746;7.072;2022-08-30T06:59:44;17.10;;;5.93;;
33716;SDS011;20046;50.746;7.072;2022-08-30T07:02:10;16.45;;;5.95;;
33716;SDS011;20046;50.746;7.072;2022-08-30T07:04:35;21.77;;;6.13;;
33716;SDS011;20046;50.746;7.072;2022-08-30T07:07:02;24.52;;;6.78;;
33716;SDS011;20046;50.746;7.072;2022-08-30T07:09:28;15.57;;;5.35;;
33716;SDS011;20046;50.746;7.072;2022-08-30T07:11:54;11.85;;;5.40;;
33716;SDS011;20046;50.746;7.072;2022-08-30T07:14:20;14.90;;;4.65;;
33716;SDS011;20046;50.746;7.072;2022-08-30T07:16:46;19.63;;;4.90;;
33716;SDS011;20046;50.746;7.072;2022-08-30T07:19:12;17.05;;;4.30;;
33716;SDS011;20046;50.746;7.072;2022-08-30T07:21:39;12.45;;;3.95;;
33716;SDS011;20046;50.746;7.072;2022-08-30T07:24:10;12.77;;;3.55;;
33716;SDS011;20046;50.746;7.072;2022-08-30T07:26:41;11.95;;;3.63;;
33716;SDS011;20046;50.746;7.072;2022-08-30T07:29:10;15.05;;;3.75;;
33716;SDS011;20046;50.746;7.072;2022-08-30T07:31:36;8.40;;;3.33;;
33716;SDS011;20046;50.746;7.072;2022-08-30T07:34:03;13.18;;;3.65;;
33716;SDS011;20046;50.746;7.072;2022-08-30T07:36:29;15.82;;;3.88;;
33716;SDS011;20046;50.746;7.072;2022-08-30T07:38:55;12.07;;;4.18;;
33716;SDS011;20046;50.746;7.072;2022-08-30T07:41:23;17.63;;;3.80;;
33716;SDS011;20046;50.746;7.072;2022-08-30T07:43:53;10.88;;;4.30;;
33716;SDS011;20046;50.746;7.072;2022-08-30T07:46:20;10.60;;;3.45;;
33716;SDS011;20046;50.746;7.072;2022-08-30T07:48:46;10.48;;;3.88;;
33716;SDS011;20046;50.746;7.072;2022-08-30T07:51:13;11.82;;;4.00;;
33716;SDS011;20046;50.746;7.072;2022-08-30T07:53:42;11.75;;;4.30;;
33716;SDS011;20046;50.746;7.072;2022-08-30T07:56:07;21.20;;;4.35;;
33716;SDS011;20046;50.746;7.072;2022-08-30T07:58:33;13.85;;;3.58;;
33716;SDS011;20046;50.746;7.072;2022-08-30T08:01:01;17.90;;;3.47;;
33716;SDS011;20046;50.746;7.072;2022-08-30T08:03:32;19.00;;;4.70;;
33716;SDS011;20046;50.746;7.072;2022-08-30T08:05:59;11.27;;;2.75;;
33716;SDS011;20046;50.746;7.072;2022-08-30T08:08:26;13.30;;;3.88;;
33716;SDS011;20046;50.746;7.072;2022-08-30T08:10:52;9.15;;;3.58;;
33716;SDS011;20046;50.746;7.072;2022-08-30T08:13:18;13.32;;;3.53;;
33716;SDS011;20046;50.746;7.072;2022-08-30T08:15:44;19.70;;;4.38;;
33716;SDS011;20046;50.746;7.072;2022-08-30T08:18:09;12.25;;;2.75;;
33716;SDS011;20046;50.746;7.072;2022-08-30T08:20:35;8.57;;;2.95;;
33716;SDS011;20046;50.746;7.072;2022-08-30T08:23:01;10.20;;;3.80;;
33716;SDS011;20046;50.746;7.072;2022-08-30T08:25:27;9.27;;;3.03;;
33716;SDS011;20046;50.746;7.072;2022-08-30T08:27:53;11.27;;;3.15;;
33716;SDS011;20046;50.746;7.072;2022-08-30T08:30:20;9.55;;;2.97;;
33716;SDS011;20046;50.746;7.072;2022-08-30T08:32:47;15.95;;;3.28;;
33716;SDS011;20046;50.746;7.072;2022-08-30T08:35:13;8.73;;;2.90;;
33716;SDS011;20046;50.746;7.072;2022-08-30T08:37:39;14.02;;;3.63;;
33716;SDS011;20046;50.746;7.072;2022-08-30T08:40:05;16.48;;;3.30;;
33716;SDS011;20046;50.746;7.072;2022-08-30T08:48:13;7.53;;;2.75;;
33716;SDS011;20046;50.746;7.072;2022-08-30T08:51:10;10.98;;;3.20;;
33716;SDS011;20046;50.746;7.072;2022-08-30T08:54:04;7.38;;;2.85;;
33716;SDS011;20046;50.746;7.072;2022-08-30T08:56:36;9.18;;;2.60;;
33716;SDS011;20046;50.746;7.072;2022-08-30T08:59:03;7.28;;;2.50;;
33716;SDS011;20046;50.746;7.072;2022-08-30T09:01:32;8.65;;;3.50;;
33716;SDS011;20046;50.746;7.072;2022-08-30T09:03:58;6.43;;;2.97;;
33716;SDS011;20046;50.746;7.072;2022-08-30T09:07:13;7.13;;;2.97;;
33716;SDS011;20046;50.746;7.072;2022-08-30T09:09:38;7.63;;;3.00;;
33716;SDS011;20046;50.746;7.072;2022-08-30T09:12:06;11.70;;;3.05;;
33716;SDS011;20046;50.746;7.072;2022-08-30T09:14:47;15.15;;;2.95;;
33716;SDS011;20046;50.746;7.072;2022-08-30T09:17:17;7.78;;;3.17;;
33716;SDS011;20046;50.746;7.072;2022-08-30T09:22:30;6.70;;;2.95;;
33716;SDS011;20046;50.746;7.072;2022-08-30T09:25:08;8.80;;;2.97;;
33716;SDS011;20046;50.746;7.072;2022-08-30T09:27:53;9.52;;;2.88;;
33716;SDS011;20046;50.746;7.072;2022-08-30T09:30:33;8.13;;;3.05;;
33716;SDS011;20046;50.746;7.072;2022-08-30T09:33:00;9.40;;;3.17;;
33716;SDS011;20046;50.746;7.072;2022-08-30T09:35:39;8.02;;;3.08;;
33716;SDS011;20046;50.746;7.072;2022-08-30T09:38:09;6.72;;;2.83;;
33716;SDS011;20046;50.746;7.072;2022-08-30T09:40:37;6.18;;;2.70;;
33716;SDS011;20046;50.746;7.072;2022-08-30T09:45:37;9.82;;;3.13;;
33716;SDS011;20046;50.746;7.072;2022-08-30T09:48:49;10.75;;;3.10;;
33716;SDS011;20046;50.746;7.072;2022-08-30T09:50:52;14.95;;;3.33;;
33716;SDS011;20046;50.746;7.072;2022-08-30T09:53:36;8.77;;;3.08;;
33716;SDS011;20046;50.746;7.072;2022-08-30T09:56:19;9.15;;;3.45;;
33716;SDS011;20046;50.746;7.072;2022-08-30T10:01:24;6.70;;;2.80;;
33716;SDS011;20046;50.746;7.072;2022-08-30T10:07:05;8.85;;;3.08;;
33716;SDS011;20046;50.746;7.072;2022-08-30T10:09:48;14.30;;;3.30;;
33716;SDS011;20046;50.746;7.072;2022-08-30T10:12:38;9.80;;;2.90;;
33716;SDS011;20046;50.746;7.072;2022-08-30T10:15:19;8.98;;;2.97;;
33716;SDS011;20046;50.746;7.072;2022-08-30T10:17:53;10.15;;;3.40;;
33716;SDS011;20046;50.746;7.072;2022-08-30T10:23:20;6.80;;;3.00;;
33716;SDS011;20046;50.746;7.072;2022-08-30T10:25:52;5.03;;;2.67;;
33716;SDS011;20046;50.746;7.072;2022-08-30T10:28:37;9.80;;;3.30;;
33716;SDS011;20046;50.746;7.072;2022-08-30T10:31:12;8.40;;;3.20;;
33716;SDS011;20046;50.746;7.072;2022-08-30T10:33:52;11.55;;;2.88;;
33716;SDS011;20046;50.746;7.072;2022-08-30T10:36:26;11.73;;;2.90;;
33716;SDS011;20046;50.746;7.072;2022-08-30T10:39:01;9.07;;;2.92;;
33716;SDS011;20046;50.746;7.072;2022-08-30T10:43:59;7.43;;;3.50;;
33716;SDS011;20046;50.746;7.072;2022-08-30T10:49:28;12.98;;;3.03;;
33716;SDS011;20046;50.746;7.072;2022-08-30T10:51:59;8.20;;;3.30;;
33716;SDS011;20046;50.746;7.072;2022-08-30T10:54:50;10.38;;;3.30;;
33716;SDS011;20046;50.746;7.072;2022-08-30T10:57:19;7.60;;;3.10;;
33716;SDS011;20046;50.746;7.072;2022-08-30T10:59:50;7.90;;;3.22;;
33716;SDS011;20046;50.746;7.072;2022-08-30T11:07:34;11.50;;;3.15;;
33716;SDS011;20046;50.746;7.072;2022-08-30T11:15:25;7.30;;;3.10;;
33716;SDS011;20046;50.746;7.072;2022-08-30T11:31:42;6.95;;;3.13;;
33716;SDS011;20046;50.746;7.072;2022-08-30T11:34:08;8.10;;;2.80;;
33716;SDS011;20046;50.746;7.072;2022-08-30T11:42:48;11.15;;;2.97;;
33716;SDS011;20046;50.746;7.072;2022-08-30T11:48:06;9.30;;;3.08;;
33716;SDS011;20046;50.746;7.072;2022-08-30T11:50:58;8.43;;;3.40;;
33716;SDS011;20046;50.746;7.072;2022-08-30T11:56:19;5.68;;;2.63;;
33716;SDS011;20046;50.746;7.072;2022-08-30T11:59:00;5.15;;;2.78;;
33716;SDS011;20046;50.746;7.072;2022-08-30T12:01:34;4.43;;;2.50;;
33716;SDS011;20046;50.746;7.072;2022-08-30T12:04:08;9.95;;;3.08;;
33716;SDS011;20046;50.746;7.072;2022-08-30T12:09:07;7.75;;;3.20;;
33716;SDS011;20046;50.746;7.072;2022-08-30T12:14:00;6.10;;;3.05;;
33716;SDS011;20046;50.746;7.072;2022-08-30T12:16:44;8.95;;;2.88;;
33716;SDS011;20046;50.746;7.072;2022-08-30T12:19:30;6.18;;;2.70;;
33716;SDS011;20046;50.746;7.072;2022-08-30T12:22:01;4.65;;;2.88;;
33716;SDS011;20046;50.746;7.072;2022-08-30T12:24:40;7.90;;;3.33;;
33716;SDS011;20046;50.746;7.072;2022-08-30T12:27:27;7.70;;;3.13;;
33716;SDS011;20046;50.746;7.072;2022-08-30T12:29:56;6.05;;;2.72;;
33716;SDS011;20046;50.746;7.072;2022-08-30T12:32:25;9.45;;;3.03;;
33716;SDS011;20046;50.746;7.072;2022-08-30T12:34:53;6.43;;;2.90;;
33716;SDS011;20046;50.746;7.072;2022-08-30T12:37:28;8.43;;;3.25;;
33716;SDS011;20046;50.746;7.072;2022-08-30T12:40:06;7.07;;;2.63;;
33716;SDS011;20046;50.746;7.072;2022-08-30T12:42:37;5.68;;;2.90;;
33716;SDS011;20046;50.746;7.072;2022-08-30T12:45:15;9.45;;;3.08;;
33716;SDS011;20046;50.746;7.072;2022-08-30T12:50:16;5.60;;;3.22;;
33716;SDS011;20046;50.746;7.072;2022-08-30T12:52:45;7.95;;;3.30;;
33716;SDS011;20046;50.746;7.072;2022-08-30T12:55:23;6.53;;;2.95;;
33716;SDS011;20046;50.746;7.072;2022-08-30T12:57:59;8.23;;;2.90;;
33716;SDS011;20046;50.746;7.072;2022-08-30T13:00:38;6.32;;;2.53;;
33716;SDS011;20046;50.746;7.072;2022-08-30T13:03:24;4.97;;;2.92;;
33716;SDS011;20046;50.746;7.072;2022-08-30T13:05:54;4.97;;;2.80;;
33716;SDS011;20046;50.746;7.072;2022-08-30T13:08:30;7.40;;;3.15;;
33716;SDS011;20046;50.746;7.072;2022-08-30T13:11:03;7.18;;;3.00;;
33716;SDS011;20046;50.746;7.072;2022-08-30T13:16:18;4.97;;;2.83;;
33716;SDS011;20046;50.746;7.072;2022-08-30T13:18:52;9.73;;;4.35;;
33716;SDS011;20046;50.746;7.072;2022-08-30T13:23:46;3.75;;;2.67;;
33716;SDS011;20046;50.746;7.072;2022-08-30T13:26:15;6.57;;;3.47;;
33716;SDS011;20046;50.746;7.072;2022-08-30T13:28:49;8.45;;;3.25;;
33716;SDS011;20046;50.746;7.072;2022-08-30T13:31:21;7.80;;;4.45;;
33716;SDS011;20046;50.746;7.072;2022-08-30T13:33:47;7.47;;;3.22;;
33716;SDS011;20046;50.746;7.072;2022-08-30T13:36:17;7.88;;;3.20;;
33716;SDS011;20046;50.746;7.072;2022-08-30T13:38:44;6.22;;;2.53;;
33716;SDS011;20046;50.746;7.072;2022-08-30T13:41:10;6.18;;;3.33;;
33716;SDS011;20046;50.746;7.072;2022-08-30T13:43:35;5.72;;;3.28;;
33716;SDS011;20046;50.746;7.072;2022-08-30T13:46:02;11.40;;;3.30;;
33716;SDS011;20046;50.746;7.072;2022-08-30T13:48:28;6.05;;;3.40;;
33716;SDS011;20046;50.746;7.072;2022-08-30T13:50:54;5.30;;;3.08;;
33716;SDS011;20046;50.746;7.072;2022-08-30T13:53:21;6.55;;;2.72;;
33716;SDS011;20046;50.746;7.072;2022-08-30T13:55:46;6.93;;;2.95;;
33716;SDS011;20046;50.746;7.072;2022-08-30T13:58:12;6.05;;;3.00;;
33716;SDS011;20046;50.746;7.072;2022-08-30T14:00:37;7.13;;;2.90;;
33716;SDS011;20046;50.746;7.072;2022-08-30T14:03:03;6.43;;;2.83;;
33716;SDS011;20046;50.746;7.072;2022-08-30T14:05:34;10.98;;;3.25;;
33716;SDS011;20046;50.746;7.072;2022-08-30T14:08:01;10.77;;;3.43;;
33716;SDS011;20046;50.746;7.072;2022-08-30T14:10:28;8.38;;;3.17;;
33716;SDS011;20046;50.746;7.072;2022-08-30T14:12:55;7.78;;;3.72;;
33716;SDS011;20046;50.746;7.072;2022-08-30T14:15:21;6.63;;;3.03;;
33716;SDS011;20046;50.746;7.072;2022-08-30T14:17:46;10.13;;;3.33;;
33716;SDS011;20046;50.746;7.072;2022-08-30T14:20:12;3.90;;;3.05;;
33716;SDS011;20046;50.746;7.072;2022-08-30T14:22:38;5.65;;;3.17;;
33716;SDS011;20046;50.746;7.072;2022-08-30T14:25:04;7.32;;;3.20;;
33716;SDS011;20046;50.746;7.072;2022-08-30T14:27:30;6.75;;;3.20;;
33716;SDS011;20046;50.746;7.072;2022-08-30T14:29:56;7.20;;;3.08;;
33716;SDS011;20046;50.746;7.072;2022-08-30T14:32:22;9.50;;;3.50;;
33716;SDS011;20046;50.746;7.072;2022-08-30T14:34:47;6.68;;;3.05;;
33716;SDS011;20046;50.746;7.072;2022-08-30T14:37:13;8.50;;;3.00;;
33716;SDS011;20046;50.746;7.072;2022-08-30T14:39:39;5.15;;;3.05;;
33716;SDS011;20046;50.746;7.072;2022-08-30T14:42:05;6.88;;;3.33;;
33716;SDS011;20046;50.746;7.072;2022-08-30T14:44:31;9.75;;;3.30;;
33716;SDS011;20046;50.746;7.072;2022-08-30T14:46:57;6.05;;;3.40;;
33716;SDS011;20046;50.746;7.072;2022-08-30T14:49:24;7.72;;;2.95;;
33716;SDS011;20046;50.746;7.072;2022-08-30T14:51:50;6.93;;;3.25;;
33716;SDS011;20046;50.746;7.072;2022-08-30T14:54:18;7.93;;;3.00;;
33716;SDS011;20046;50.746;7.072;2022-08-30T14:56:48;7.72;;;3.20;;
33716;SDS011;20046;50.746;7.072;2022-08-30T14:59:14;5.55;;;3.00;;
33716;SDS011;20046;50.746;7.072;2022-08-30T15:01:40;6.47;;;3.08;;
33716;SDS011;20046;50.746;7.072;2022-08-30T15:04:06;5.93;;;3.33;;
33716;SDS011;20046;50.746;7.072;2022-08-30T15:06:33;4.75;;;2.72;;
33716;SDS011;20046;50.746;7.072;2022-08-30T15:09:00;9.95;;;3.65;;
33716;SDS011;20046;50.746;7.072;2022-08-30T15:11:26;5.60;;;3.08;;
33716;SDS011;20046;50.746;7.072;2022-08-30T15:13:52;8.20;;;3.55;;
33716;SDS011;20046;50.746;7.072;2022-08-30T15:16:19;6.32;;;3.20;;
33716;SDS011;20046;50.746;7.072;2022-08-30T15:18:47;11.90;;;3.28;;
33716;SDS011;20046;50.746;7.072;2022-08-30T15:21:13;8.57;;;3.53;;
33716;SDS011;20046;50.746;7.072;2022-08-30T15:23:45;9.75;;;3.25;;
33716;SDS011;20046;50.746;7.072;2022-08-30T15:26:11;5.53;;;3.42;;
33716;SDS011;20046;50.746;7.072;2022-08-30T15:28:37;6.57;;;3.13;;
33716;SDS011;20046;50.746;7.072;2022-08-30T15:31:03;6.47;;;3.63;;
33716;SDS011;20046;50.746;7.072;2022-08-30T15:33:28;4.25;;;3.00;;
33716;SDS011;20046;50.746;7.072;2022-08-30T15:35:54;7.70;;;3.35;;
33716;SDS011;20046;50.746;7.072;2022-08-30T15:38:23;8.88;;;3.33;;
33716;SDS011;20046;50.746;7.072;2022-08-30T15:40:49;7.10;;;3.70;;
33716;SDS011;20046;50.746;7.072;2022-08-30T15:43:14;6.57;;;3.63;;
33716;SDS011;20046;50.746;7.072;2022-08-30T15:45:40;8.43;;;5.10;;
33716;SDS011;20046;50.746;7.072;2022-08-30T15:48:06;8.07;;;3.83;;
33716;SDS011;20046;50.746;7.072;2022-08-30T15:50:31;6.97;;;3.40;;
33716;SDS011;20046;50.746;7.072;2022-08-30T15:52:57;7.30;;;3.28;;
33716;SDS011;20046;50.746;7.072;2022-08-30T15:55:22;9.50;;;3.40;;
33716;SDS011;20046;50.746;7.072;2022-08-30T15:57:48;9.50;;;3.38;;
33716;SDS011;20046;50.746;7.072;2022-08-30T16:00:14;5.03;;;3.05;;
33716;SDS011;20046;50.746;7.072;2022-08-30T16:02:40;6.38;;;3.50;;
33716;SDS011;20046;50.746;7.072;2022-08-30T16:05:06;6.53;;;3.53;;